Time;durP1;ratioP1;P1;durP2;ratioP2;P2;SDS_P1;SDS_P2;PMS_P1;PMS_P2;Temp;Humidity;BMP_temperature;BMP_pressure;BME280_temperature;BME280_humidity;BME280_pressure;Samples;Min_cycle;Max_cycle;Signal;HPM_P1;HPM_P2
2023/02/17 00:00:11;;;;;;;13.93;5.43;;;11.00;62.90;;;;;;5015597;28;20200;-74
2023/02/17 00:02:37;;;;;;;9.03;5.30;;;11.00;63.10;;;;;;5035379;28;20188;-75
2023/02/17 00:05:04;;;;;;;10.10;6.00;;;11.10;62.80;;;;;;5028034;28;20875;-73
2023/02/17 00:07:31;;;;;;;7.20;4.20;;;11.10;62.80;;;;;;5037045;28;20499;-75
2023/02/17 00:09:58;;;;;;;13.77;5.53;;;11.10;62.50;;;;;;5033774;28;20425;-74
2023/02/17 00:12:24;;;;;;;7.50;4.77;;;11.10;62.60;;;;;;5034960;28;20478;-75
2023/02/17 00:14:49;;;;;;;13.83;4.77;;;11.10;62.80;;;;;;5025699;28;20506;-75
2023/02/17 00:17:15;;;;;;;8.93;4.90;;;11.10;62.60;;;;;;5015156;28;20846;-75
2023/02/17 00:19:40;;;;;;;8.57;4.57;;;11.10;62.90;;;;;;5032880;28;20248;-74
2023/02/17 00:22:06;;;;;;;15.60;5.37;;;11.10;62.50;;;;;;5031641;28;20185;-73
2023/02/17 00:24:36;;;;;;;9.30;5.20;;;11.10;62.90;;;;;;5025128;28;20576;-74
2023/02/17 00:27:01;;;;;;;8.30;5.10;;;11.10;62.90;;;;;;5011823;28;20420;-75
2023/02/17 00:29:27;;;;;;;7.70;4.60;;;11.00;63.20;;;;;;5025724;28;20469;-74
2023/02/17 00:31:53;;;;;;;9.57;4.80;;;11.00;63.40;;;;;;5026802;28;20197;-75
2023/02/17 00:34:19;;;;;;;7.73;4.53;;;11.10;63.10;;;;;;5022237;28;20595;-74
2023/02/17 00:36:45;;;;;;;9.30;5.47;;;11.10;63.10;;;;;;5027444;28;20566;-74
2023/02/17 00:39:13;;;;;;;8.80;5.13;;;11.10;63.20;;;;;;5027346;28;20236;-76
2023/02/17 00:41:39;;;;;;;9.83;4.63;;;11.00;63.10;;;;;;5026252;28;20424;-75
2023/02/17 00:44:04;;;;;;;9.87;5.03;;;11.00;63.40;;;;;;5028149;28;20899;-74
2023/02/17 00:46:30;;;;;;;10.13;4.17;;;11.10;63.50;;;;;;5031783;28;20190;-74
2023/02/17 00:48:56;;;;;;;9.60;4.23;;;11.10;62.50;;;;;;5012975;28;20181;-74
2023/02/17 00:51:22;;;;;;;8.60;4.70;;;11.10;63.20;;;;;;5032157;28;20250;-74
2023/02/17 00:53:48;;;;;;;9.47;4.90;;;11.10;63.20;;;;;;5028240;28;20205;-74
2023/02/17 00:56:13;;;;;;;9.60;5.27;;;11.10;63.10;;;;;;5032367;28;20435;-74
2023/02/17 00:58:40;;;;;;;7.83;5.00;;;11.10;63.50;;;;;;5028759;28;20276;-74
2023/02/17 01:01:06;;;;;;;9.50;4.57;;;11.10;63.40;;;;;;5029296;28;20263;-74
2023/02/17 01:03:32;;;;;;;7.93;4.37;;;11.10;63.40;;;;;;5027763;28;20525;-74
2023/02/17 01:05:58;;;;;;;10.10;4.50;;;11.10;63.20;;;;;;5032576;28;20419;-75
2023/02/17 01:08:24;;;;;;;8.53;5.20;;;11.20;63.10;;;;;;5028066;28;20201;-74
2023/02/17 01:10:51;;;;;;;7.00;4.37;;;11.20;63.40;;;;;;5027923;28;20220;-74
2023/02/17 01:13:18;;;;;;;9.90;4.30;;;11.20;63.50;;;;;;5026687;28;20551;-74
2023/02/17 01:15:47;;;;;;;9.63;4.80;;;11.20;63.70;;;;;;5027167;28;20448;-74
2023/02/17 01:18:17;;;;;;;8.00;3.90;;;11.20;63.40;;;;;;5025899;28;20432;-74
2023/02/17 01:20:43;;;;;;;8.17;4.23;;;11.20;63.40;;;;;;5026204;28;20464;-74
2023/02/17 01:23:10;;;;;;;13.23;4.50;;;11.20;63.20;;;;;;5029829;28;20423;-74
2023/02/17 01:25:42;;;;;;;9.27;4.07;;;11.20;63.70;;;;;;5027407;28;20462;-74
2023/02/17 01:28:13;;;;;;;8.90;4.10;;;11.20;63.50;;;;;;5033446;28;20418;-73
2023/02/17 01:30:39;;;;;;;7.13;3.90;;;11.20;64.20;;;;;;5041514;28;20423;-73
2023/02/17 01:33:05;;;;;;;8.53;4.30;;;11.10;64.40;;;;;;5031561;28;20415;-73
2023/02/17 01:35:32;;;;;;;7.50;4.70;;;11.10;64.50;;;;;;5041453;28;20202;-74
2023/02/17 01:37:58;;;;;;;7.90;4.50;;;11.10;65.10;;;;;;5025436;28;20287;-74
2023/02/17 01:40:24;;;;;;;8.87;4.40;;;11.10;65.40;;;;;;5013793;28;20562;-73
2023/02/17 01:42:49;;;;;;;6.63;4.20;;;11.00;65.60;;;;;;5030441;28;20182;-74
2023/02/17 01:45:18;;;;;;;9.83;5.00;;;11.00;65.60;;;;;;5012242;28;20981;-74
2023/02/17 01:47:54;;;;;;;10.07;4.90;;;10.90;65.80;;;;;;5024081;28;20188;-73
2023/02/17 01:50:23;;;;;;;10.90;5.27;;;10.90;66.00;;;;;;5011072;28;20432;-75
2023/02/17 01:52:50;;;;;;;7.27;4.60;;;10.90;66.00;;;;;;5029009;28;20923;-74
2023/02/17 01:55:20;;;;;;;10.97;3.97;;;10.80;66.30;;;;;;5028497;28;20466;-73
2023/02/17 01:57:48;;;;;;;7.53;4.43;;;10.80;66.40;;;;;;5015780;28;20431;-74
2023/02/17 02:00:16;;;;;;;7.87;4.30;;;10.70;66.70;;;;;;5017063;28;20578;-74
2023/02/17 02:02:45;;;;;;;8.17;4.63;;;10.80;66.60;;;;;;5012629;28;20432;-74
2023/02/17 02:05:11;;;;;;;8.97;4.00;;;10.70;66.70;;;;;;5031073;28;20487;-74
2023/02/17 02:07:41;;;;;;;8.20;3.80;;;10.70;66.70;;;;;;5050017;28;20423;-74
2023/02/17 02:10:09;;;;;;;6.60;4.30;;;10.80;66.70;;;;;;5035912;28;20416;-74
2023/02/17 02:12:37;;;;;;;7.53;4.23;;;10.70;66.70;;;;;;5039085;28;20858;-74
2023/02/17 02:15:12;;;;;;;8.40;4.43;;;10.70;67.20;;;;;;5048707;28;20438;-74
2023/02/17 02:18:05;;;;;;;9.97;4.27;;;10.70;66.90;;;;;;5059290;28;20445;-74
2023/02/17 02:21:04;;;;;;;14.23;4.03;;;10.70;66.90;;;;;;5041428;28;20471;-75
2023/02/17 02:23:57;;;;;;;8.97;4.17;;;10.60;66.90;;;;;;5031849;28;20488;-75
2023/02/17 02:27:00;;;;;;;14.67;4.70;;;10.60;66.90;;;;;;5028519;28;20806;-73
2023/02/17 02:29:45;;;;;;;13.80;4.80;;;10.60;67.20;;;;;;5038485;28;20427;-74
2023/02/17 02:32:35;;;;;;;11.00;4.10;;;10.60;67.20;;;;;;5033610;28;20807;-74
2023/02/17 02:35:24;;;;;;;7.70;4.60;;;10.60;67.00;;;;;;5017905;28;20470;-74
2023/02/17 02:38:08;;;;;;;8.87;4.57;;;10.60;67.20;;;;;;5035986;28;20783;-73
2023/02/17 02:40:39;;;;;;;14.03;4.27;;;10.60;67.20;;;;;;5037433;28;20462;-75
2023/02/17 02:43:05;;;;;;;8.23;4.97;;;10.60;67.00;;;;;;5040860;28;20414;-73
2023/02/17 02:45:30;;;;;;;7.73;4.50;;;10.60;67.30;;;;;;5036585;28;20510;-74
2023/02/17 02:47:57;;;;;;;8.20;4.17;;;10.60;67.50;;;;;;5034983;28;20177;-76
2023/02/17 02:50:46;;;;;;;8.30;4.60;;;10.60;67.50;;;;;;5038641;28;20244;-74
2023/02/17 02:53:39;;;;;;;7.63;3.80;;;10.70;66.90;;;;;;5014496;28;20420;-74
2023/02/17 02:56:31;;;;;;;7.40;4.20;;;10.70;67.20;;;;;;5032218;28;20509;-74
2023/02/17 02:59:15;;;;;;;5.67;4.17;;;10.70;66.90;;;;;;5003199;28;20492;-75
2023/02/17 03:01:47;;;;;;;8.70;4.00;;;10.60;67.00;;;;;;5036471;28;20478;-75
2023/02/17 03:04:35;;;;;;;6.83;4.03;;;10.60;67.30;;;;;;5032239;28;20798;-74
2023/02/17 03:07:27;;;;;;;14.20;4.37;;;10.60;67.00;;;;;;5041021;28;20510;-75
2023/02/17 03:09:56;;;;;;;9.07;4.27;;;10.60;66.90;;;;;;5023700;28;20551;-74
2023/02/17 03:12:23;;;;;;;9.43;5.20;;;10.60;67.20;;;;;;5048592;28;20426;-75
2023/02/17 03:14:52;;;;;;;6.57;4.43;;;10.70;67.20;;;;;;5032889;28;20517;-74
2023/02/17 03:17:18;;;;;;;7.47;4.30;;;10.60;66.70;;;;;;5022732;28;20456;-75
2023/02/17 03:19:45;;;;;;;10.27;3.80;;;10.60;67.20;;;;;;5036106;28;20519;-74
2023/02/17 03:22:22;;;;;;;7.60;3.90;;;10.60;67.20;;;;;;5013576;28;20195;-73
2023/02/17 03:24:47;;;;;;;13.23;4.70;;;10.60;67.30;;;;;;5031325;28;20451;-74
2023/02/17 03:27:13;;;;;;;11.80;4.40;;;10.70;67.30;;;;;;5042536;28;20472;-74
2023/02/17 03:29:40;;;;;;;9.00;5.27;;;10.70;66.60;;;;;;5035519;28;20558;-75
2023/02/17 03:32:06;;;;;;;9.40;4.00;;;10.70;66.90;;;;;;5033309;28;20197;-74
2023/02/17 03:34:32;;;;;;;9.80;4.83;;;10.70;66.90;;;;;;5039059;28;20450;-75
2023/02/17 03:36:57;;;;;;;5.67;3.60;;;10.70;66.60;;;;;;5044783;28;20831;-74
2023/02/17 03:39:23;;;;;;;6.70;3.80;;;10.70;66.90;;;;;;5019652;28;20217;-73
2023/02/17 03:41:50;;;;;;;9.73;4.63;;;10.70;67.20;;;;;;5046494;28;20260;-74
2023/02/17 03:44:19;;;;;;;10.40;4.13;;;10.80;66.70;;;;;;5033560;28;20197;-74
2023/02/17 03:46:45;;;;;;;6.80;4.10;;;10.80;66.90;;;;;;5052129;28;20411;-74
2023/02/17 03:49:11;;;;;;;8.50;4.20;;;10.80;66.90;;;;;;5041341;28;20434;-74
2023/02/17 03:51:37;;;;;;;7.47;4.23;;;10.80;66.90;;;;;;5044884;28;20424;-73
2023/02/17 03:54:03;;;;;;;13.33;4.67;;;10.70;67.30;;;;;;5033750;28;20489;-74
2023/02/17 03:56:29;;;;;;;10.13;4.40;;;10.70;67.30;;;;;;5016199;28;20268;-73
2023/02/17 03:58:54;;;;;;;8.67;4.30;;;10.60;67.30;;;;;;5040450;28;20648;-74
2023/02/17 04:01:20;;;;;;;10.80;4.73;;;10.60;67.60;;;;;;5029171;28;20243;-74
2023/02/17 04:03:46;;;;;;;11.53;4.83;;;10.50;68.00;;;;;;5028177;28;20233;-74
2023/02/17 04:06:12;;;;;;;9.17;4.83;;;10.50;68.20;;;;;;5031617;28;20424;-74
2023/02/17 04:08:38;;;;;;;9.73;4.43;;;10.40;68.50;;;;;;5016691;28;20213;-75
2023/02/17 04:11:06;;;;;;;7.60;4.17;;;10.40;68.80;;;;;;5016693;28;20209;-75
2023/02/17 04:13:32;;;;;;;9.03;4.43;;;10.40;68.80;;;;;;5026781;28;20463;-74
2023/02/17 04:16:00;;;;;;;8.77;4.20;;;10.40;69.10;;;;;;5033706;28;20434;-75
2023/02/17 04:18:26;;;;;;;8.07;4.50;;;10.30;69.10;;;;;;5034888;28;20419;-75
2023/02/17 04:20:52;;;;;;;9.17;4.83;;;10.40;69.10;;;;;;5034537;28;20513;-76
2023/02/17 04:23:18;;;;;;;9.67;5.20;;;10.40;68.90;;;;;;5035322;28;20422;-74
2023/02/17 04:25:44;;;;;;;10.90;4.33;;;10.40;68.80;;;;;;5028154;28;20416;-74
2023/02/17 04:28:10;;;;;;;10.00;4.40;;;10.40;68.90;;;;;;5034378;28;20261;-75
2023/02/17 04:30:36;;;;;;;7.60;3.50;;;10.40;68.90;;;;;;5032344;28;20416;-75
2023/02/17 04:33:02;;;;;;;9.40;4.53;;;10.30;69.10;;;;;;5027176;28;20428;-74
2023/02/17 04:35:28;;;;;;;7.70;4.83;;;10.30;69.40;;;;;;5039707;28;20579;-74
2023/02/17 04:37:54;;;;;;;7.40;4.20;;;10.30;69.40;;;;;;5037280;28;20497;-74
2023/02/17 04:40:20;;;;;;;9.20;5.10;;;10.30;69.40;;;;;;5049806;28;20204;-74
2023/02/17 04:42:46;;;;;;;9.93;4.50;;;10.30;69.50;;;;;;5035184;28;20419;-75
2023/02/17 04:45:12;;;;;;;12.13;3.93;;;10.30;69.40;;;;;;5047533;28;20448;-74
2023/02/17 04:47:38;;;;;;;7.80;4.63;;;10.30;69.50;;;;;;5056605;28;20176;-73
2023/02/17 04:50:06;;;;;;;9.93;4.60;;;10.30;69.70;;;;;;5045800;28;20438;-73
2023/02/17 04:52:32;;;;;;;7.97;5.00;;;10.30;69.70;;;;;;5043056;28;21013;-73
2023/02/17 04:54:57;;;;;;;7.80;4.60;;;10.20;69.80;;;;;;5054016;28;20506;-74
2023/02/17 04:57:23;;;;;;;8.83;4.27;;;10.30;70.10;;;;;;5045971;28;20220;-73
2023/02/17 04:59:48;;;;;;;12.00;4.50;;;10.30;70.20;;;;;;5051614;28;20223;-74
2023/02/17 05:02:14;;;;;;;6.90;3.70;;;10.30;70.20;;;;;;5042792;28;20191;-74
2023/02/17 05:04:39;;;;;;;8.73;4.67;;;10.40;70.20;;;;;;5030377;28;20580;-75
2023/02/17 05:07:05;;;;;;;8.57;4.07;;;10.30;70.20;;;;;;5023869;28;20624;-74
2023/02/17 05:09:30;;;;;;;11.43;4.50;;;10.40;70.10;;;;;;5023792;28;20346;-74
2023/02/17 05:11:56;;;;;;;10.00;3.93;;;10.40;70.50;;;;;;5038685;28;20216;-74
2023/02/17 05:14:22;;;;;;;5.67;3.67;;;10.30;70.50;;;;;;5035031;28;20217;-73
2023/02/17 05:16:47;;;;;;;10.80;3.80;;;10.30;70.80;;;;;;5036688;28;20242;-75
2023/02/17 05:19:13;;;;;;;6.83;4.73;;;10.30;71.30;;;;;;5031741;28;20268;-75
2023/02/17 05:21:38;;;;;;;5.93;4.10;;;10.30;71.30;;;;;;5010697;28;20189;-75
2023/02/17 05:24:04;;;;;;;6.53;3.63;;;10.40;71.30;;;;;;5031729;28;20379;-74
2023/02/17 05:26:30;;;;;;;9.50;4.00;;;10.40;71.30;;;;;;5032056;28;20185;-75
2023/02/17 05:28:56;;;;;;;6.40;4.00;;;10.50;71.70;;;;;;5029672;28;20427;-74
2023/02/17 05:31:22;;;;;;;7.23;4.30;;;10.50;71.80;;;;;;5031648;28;20189;-75
2023/02/17 05:33:48;;;;;;;9.20;4.27;;;10.50;72.00;;;;;;5027159;28;20576;-76
2023/02/17 05:36:14;;;;;;;6.70;3.83;;;10.50;72.00;;;;;;5027353;28;20438;-75
2023/02/17 05:38:39;;;;;;;12.50;4.30;;;10.60;72.00;;;;;;5031026;28;20661;-75
2023/02/17 05:41:05;;;;;;;9.43;4.50;;;10.60;72.00;;;;;;5026932;28;20296;-76
2023/02/17 05:43:31;;;;;;;9.10;4.90;;;10.60;72.10;;;;;;5027784;28;20209;-75
2023/02/17 05:46:03;;;;;;;10.03;4.20;;;10.60;72.40;;;;;;5031180;28;20937;-76
2023/02/17 05:48:29;;;;;;;7.53;4.57;;;10.60;72.60;;;;;;5028406;28;20615;-76
2023/02/17 05:50:55;;;;;;;9.70;5.13;;;10.60;72.60;;;;;;5028148;28;20543;-74
2023/02/17 05:53:20;;;;;;;12.63;4.50;;;10.60;73.00;;;;;;5026043;28;20463;-77
2023/02/17 05:55:46;;;;;;;8.20;4.23;;;10.60;73.00;;;;;;5014184;28;20243;-76
2023/02/17 05:58:11;;;;;;;7.63;4.73;;;10.60;72.90;;;;;;5033251;28;20550;-76
2023/02/17 06:00:37;;;;;;;10.20;4.77;;;10.70;72.90;;;;;;5015082;28;20213;-78
2023/02/17 06:03:03;;;;;;;10.13;5.13;;;10.70;72.70;;;;;;5032906;28;20193;-76
2023/02/17 06:05:28;;;;;;;9.77;5.00;;;10.70;73.00;;;;;;5030698;28;20280;-76
2023/02/17 06:07:54;;;;;;;7.13;4.00;;;10.70;73.50;;;;;;5029911;28;20250;-75
2023/02/17 06:10:19;;;;;;;7.07;4.20;;;10.70;73.50;;;;;;5032471;28;20181;-80
2023/02/17 06:12:45;;;;;;;8.80;4.67;;;10.80;73.60;;;;;;5034536;28;20185;-77
2023/02/17 06:15:11;;;;;;;9.20;4.57;;;10.80;73.60;;;;;;5032356;28;20215;-79
2023/02/17 06:17:37;;;;;;;11.53;4.50;;;10.80;73.60;;;;;;5013328;28;20232;-75
2023/02/17 06:20:03;;;;;;;7.00;4.20;;;10.90;73.60;;;;;;5032679;28;20202;-76
2023/02/17 06:22:29;;;;;;;10.90;4.60;;;10.90;73.70;;;;;;5011852;28;20511;-74
2023/02/17 06:24:54;;;;;;;10.90;4.80;;;10.90;73.60;;;;;;5022973;28;20542;-75
2023/02/17 06:27:20;;;;;;;7.37;4.80;;;11.00;73.70;;;;;;5012661;28;20181;-75
2023/02/17 06:29:46;;;;;;;8.00;4.30;;;11.00;73.60;;;;;;5031706;28;20231;-75
2023/02/17 06:32:11;;;;;;;8.13;4.20;;;11.00;73.50;;;;;;5026934;28;20180;-76
2023/02/17 06:34:37;;;;;;;11.13;4.50;;;11.00;73.70;;;;;;5021916;28;20285;-75
2023/02/17 06:37:02;;;;;;;11.57;4.60;;;10.90;73.70;;;;;;5030836;28;20233;-75
2023/02/17 06:39:28;;;;;;;11.23;5.13;;;10.90;73.90;;;;;;5028181;28;20211;-74
2023/02/17 06:41:54;;;;;;;14.33;5.70;;;10.90;73.90;;;;;;5011458;28;20207;-75
2023/02/17 06:44:19;;;;;;;9.50;4.33;;;10.90;74.00;;;;;;5022873;28;20241;-76
2023/02/17 06:46:45;;;;;;;10.90;4.30;;;10.90;74.00;;;;;;5030841;28;20192;-76
2023/02/17 06:49:11;;;;;;;9.90;4.40;;;10.90;74.00;;;;;;5032740;28;20564;-74
2023/02/17 06:51:37;;;;;;;9.47;4.40;;;11.00;74.00;;;;;;5033430;28;20455;-76
2023/02/17 06:54:03;;;;;;;9.47;4.70;;;10.90;74.20;;;;;;5028937;28;20499;-75
2023/02/17 06:56:29;;;;;;;7.30;4.27;;;10.90;74.20;;;;;;5033216;28;20419;-74
2023/02/17 06:58:54;;;;;;;9.73;4.40;;;10.90;74.30;;;;;;5031006;28;20270;-76
2023/02/17 07:01:24;;;;;;;11.77;4.70;;;10.90;74.30;;;;;;5030548;28;20213;-76
2023/02/17 07:03:51;;;;;;;8.67;4.10;;;10.90;74.30;;;;;;5029292;28;20201;-76
2023/02/17 07:06:16;;;;;;;7.67;4.33;;;10.90;74.30;;;;;;5031268;28;20469;-76
2023/02/17 07:08:42;;;;;;;8.07;4.87;;;10.90;74.30;;;;;;5012495;28;21319;-76
2023/02/17 07:11:10;;;;;;;11.90;4.10;;;10.90;74.30;;;;;;5030075;28;20199;-75
2023/02/17 07:13:35;;;;;;;7.50;4.13;;;11.00;74.50;;;;;;5019518;28;20295;-76
2023/02/17 07:16:01;;;;;;;9.40;4.50;;;11.00;74.30;;;;;;5028853;28;20994;-76
2023/02/17 07:18:27;;;;;;;10.63;4.60;;;11.00;74.50;;;;;;5030088;28;20678;-74
2023/02/17 07:20:52;;;;;;;10.30;4.70;;;11.00;74.50;;;;;;5027838;28;20208;-77
2023/02/17 07:23:18;;;;;;;9.00;3.90;;;11.00;74.50;;;;;;5028125;28;20181;-75
2023/02/17 07:25:44;;;;;;;5.90;3.47;;;11.00;74.50;;;;;;5025204;28;20357;-75
2023/02/17 07:28:10;;;;;;;8.00;3.93;;;11.00;74.60;;;;;;5034239;28;20199;-75
2023/02/17 07:30:40;;;;;;;7.77;3.77;;;11.00;74.60;;;;;;5027553;28;20177;-75
2023/02/17 07:33:06;;;;;;;6.60;3.70;;;11.00;74.50;;;;;;5032024;28;20675;-74
2023/02/17 07:35:33;;;;;;;5.83;3.77;;;11.10;74.50;;;;;;5037449;28;20490;-76
2023/02/17 07:37:59;;;;;;;6.70;4.13;;;11.00;74.60;;;;;;5042268;28;20456;-75
2023/02/17 07:40:26;;;;;;;6.70;4.20;;;11.00;74.80;;;;;;5046410;28;20942;-76
2023/02/17 07:42:51;;;;;;;6.87;4.33;;;11.10;74.60;;;;;;5036439;28;20477;-75
2023/02/17 07:45:17;;;;;;;11.63;4.27;;;11.10;74.80;;;;;;5033778;28;20487;-76
2023/02/17 07:47:43;;;;;;;6.47;3.90;;;11.10;74.60;;;;;;5038813;28;20221;-76
2023/02/17 07:50:09;;;;;;;7.30;3.60;;;11.10;74.80;;;;;;5029299;28;20184;-75
2023/02/17 07:52:35;;;;;;;9.60;3.90;;;11.10;74.80;;;;;;5027205;28;20200;-76
2023/02/17 07:55:00;;;;;;;5.90;3.27;;;11.10;74.90;;;;;;5014272;28;20824;-76
2023/02/17 07:57:26;;;;;;;10.30;4.17;;;11.20;74.90;;;;;;5028338;28;20439;-76
2023/02/17 07:59:51;;;;;;;7.03;3.90;;;11.20;74.90;;;;;;5028161;28;20259;-75
2023/02/17 08:02:17;;;;;;;7.20;3.80;;;11.20;74.90;;;;;;5032073;28;20272;-74
2023/02/17 08:04:43;;;;;;;9.83;4.10;;;11.20;75.10;;;;;;5034504;28;20221;-76
2023/02/17 08:07:09;;;;;;;7.27;3.63;;;11.20;75.10;;;;;;5031848;28;20605;-75
2023/02/17 08:15:06;;;;;;;6.93;3.83;;;11.10;75.40;;;;;;5029098;28;20474;-75
2023/02/17 08:17:32;;;;;;;5.87;3.63;;;11.20;75.50;;;;;;5030928;28;20431;-74
2023/02/17 08:19:57;;;;;;;7.47;3.63;;;11.20;75.40;;;;;;5024081;28;20478;-75
2023/02/17 08:22:23;;;;;;;6.73;3.20;;;11.30;75.20;;;;;;5034267;28;20860;-75
2023/02/17 08:24:49;;;;;;;7.53;4.30;;;11.30;75.40;;;;;;5012008;28;20201;-75
2023/02/17 08:27:17;;;;;;;6.40;4.20;;;11.40;75.20;;;;;;5036040;28;20854;-76
2023/02/17 08:29:43;;;;;;;7.50;3.53;;;11.50;75.10;;;;;;5040063;28;20994;-75
2023/02/17 08:32:09;;;;;;;8.37;3.33;;;11.50;75.20;;;;;;5040495;28;20458;-75
2023/02/17 08:34:34;;;;;;;12.20;3.40;;;11.60;75.10;;;;;;5018830;28;20460;-75
2023/02/17 08:37:01;;;;;;;5.70;3.50;;;11.60;74.90;;;;;;5047729;28;20930;-75
2023/02/17 08:39:27;;;;;;;12.90;3.50;;;11.60;75.10;;;;;;5039971;28;20229;-75
2023/02/17 08:41:53;;;;;;;5.93;3.13;;;11.60;75.20;;;;;;5040878;28;20475;-76
2023/02/17 08:44:20;;;;;;;8.30;4.07;;;11.60;75.20;;;;;;5033926;28;20487;-74
2023/02/17 08:46:47;;;;;;;4.97;3.03;;;11.60;75.20;;;;;;5004991;28;20193;-76
2023/02/17 08:49:15;;;;;;;9.73;3.33;;;11.60;75.40;;;;;;5032508;28;20424;-74
2023/02/17 08:51:40;;;;;;;5.80;3.40;;;11.70;75.40;;;;;;5031146;28;20439;-75
2023/02/17 08:54:09;;;;;;;5.27;3.03;;;11.70;75.40;;;;;;5019336;28;20980;-75
2023/02/17 08:56:36;;;;;;;4.80;2.60;;;11.70;75.40;;;;;;5027413;28;20181;-75
2023/02/17 08:59:02;;;;;;;5.67;3.23;;;11.60;75.70;;;;;;5030316;28;20500;-76
2023/02/17 09:01:28;;;;;;;6.40;3.27;;;11.60;75.70;;;;;;5020372;28;20993;-76
2023/02/17 09:03:59;;;;;;;5.33;2.80;;;11.70;75.80;;;;;;5027495;28;20471;-76
2023/02/17 09:06:39;;;;;;;8.40;3.33;;;11.60;75.90;;;;;;5030386;28;20656;-74
2023/02/17 09:09:06;;;;;;;6.20;3.17;;;11.70;75.90;;;;;;5022293;28;20411;-75
2023/02/17 09:11:32;;;;;;;5.33;2.87;;;11.70;75.90;;;;;;5030204;28;20416;-75
2023/02/17 09:13:57;;;;;;;6.43;3.00;;;11.60;76.20;;;;;;5026265;28;20510;-75
2023/02/17 09:16:23;;;;;;;8.33;2.97;;;11.60;76.50;;;;;;5030066;28;20177;-76
2023/02/17 09:18:51;;;;;;;6.50;2.90;;;11.60;76.70;;;;;;5030997;28;20173;-74
2023/02/17 09:21:17;;;;;;;4.20;2.57;;;11.60;76.70;;;;;;5031639;28;20554;-75
2023/02/17 09:23:43;;;;;;;4.30;3.10;;;11.60;76.70;;;;;;5031785;28;20533;-74
2023/02/17 09:26:11;;;;;;;6.00;3.17;;;11.70;76.70;;;;;;5034196;28;20181;-74
2023/02/17 09:28:38;;;;;;;6.47;3.67;;;11.70;76.50;;;;;;5035294;28;20531;-77
2023/02/17 09:31:12;;;;;;;5.17;3.40;;;11.80;76.40;;;;;;5031195;28;20527;-74
2023/02/17 09:33:39;;;;;;;5.00;3.33;;;11.80;76.20;;;;;;5027733;28;20447;-75
2023/02/17 09:36:07;;;;;;;7.10;3.40;;;12.00;76.10;;;;;;5016328;28;20869;-75
2023/02/17 09:38:33;;;;;;;6.63;3.07;;;12.20;75.80;;;;;;5010853;28;20424;-75
2023/02/17 09:41:13;;;;;;;5.77;3.27;;;12.20;75.40;;;;;;5031861;28;20467;-75
2023/02/17 09:43:38;;;;;;;5.23;2.80;;;12.20;75.40;;;;;;5020675;28;20460;-75
2023/02/17 09:46:34;;;;;;;6.20;3.00;;;12.30;75.20;;;;;;5012257;28;20507;-75
2023/02/17 09:49:06;;;;;;;4.03;2.13;;;12.50;74.80;;;;;;5028807;28;20173;-74
2023/02/17 09:51:36;;;;;;;7.47;3.47;;;12.30;74.90;;;;;;5030742;28;20522;-76
2023/02/17 09:54:17;;;;;;;5.80;2.73;;;12.20;75.40;;;;;;5029367;28;20451;-76
2023/02/17 09:56:47;;;;;;;3.90;3.17;;;12.20;75.80;;;;;;5027550;28;20422;-76
2023/02/17 09:59:38;;;;;;;6.40;3.30;;;12.20;75.70;;;;;;5028639;28;20420;-75
2023/02/17 10:02:15;;;;;;;3.90;3.17;;;12.30;75.80;;;;;;5024609;28;20416;-74
2023/02/17 10:04:44;;;;;;;6.83;2.80;;;12.30;75.70;;;;;;5023186;28;20447;-74
2023/02/17 10:07:20;;;;;;;6.07;3.07;;;12.50;75.50;;;;;;5031280;28;20424;-75
2023/02/17 10:09:51;;;;;;;6.03;2.67;;;12.60;74.90;;;;;;5029153;28;20795;-74
2023/02/17 10:12:36;;;;;;;4.53;3.00;;;12.60;75.20;;;;;;5026363;28;20501;-74
2023/02/17 10:15:13;;;;;;;6.60;3.17;;;12.70;75.10;;;;;;5022445;28;20474;-75
2023/02/17 10:18:05;;;;;;;3.57;2.40;;;12.80;74.80;;;;;;5033240;28;20407;-76
2023/02/17 10:20:57;;;;;;;3.67;2.50;;;12.70;74.80;;;;;;5026385;28;20468;-75
2023/02/17 10:23:25;;;;;;;13.93;3.93;;;12.50;75.20;;;;;;5009062;28;20518;-74
2023/02/17 10:26:25;;;;;;;5.20;2.57;;;12.50;75.50;;;;;;5032041;28;20416;-75
2023/02/17 10:28:52;;;;;;;9.33;2.70;;;12.60;75.50;;;;;;5030070;28;21058;-74
2023/02/17 10:31:23;;;;;;;6.97;2.33;;;12.70;75.20;;;;;;5012805;28;20531;-75
2023/02/17 10:34:04;;;;;;;2.77;2.30;;;12.80;75.10;;;;;;5031028;28;20523;-74
2023/02/17 10:36:29;;;;;;;3.40;2.70;;;13.00;74.60;;;;;;5040148;28;20490;-75
2023/02/17 10:39:14;;;;;;;4.80;2.90;;;13.20;74.30;;;;;;5032205;28;20436;-75
2023/02/17 10:41:44;;;;;;;4.40;2.73;;;13.40;73.60;;;;;;5030301;28;20856;-74
2023/02/17 10:44:18;;;;;;;3.83;2.00;;;13.50;73.20;;;;;;5025645;28;20455;-74
2023/02/17 10:46:44;;;;;;;3.30;2.43;;;13.50;73.30;;;;;;5032593;28;20765;-75
2023/02/17 10:49:32;;;;;;;6.70;2.13;;;13.50;73.30;;;;;;5013189;28;20478;-75
2023/02/17 10:52:16;;;;;;;4.13;2.07;;;13.60;73.30;;;;;;5030080;28;20439;-75
2023/02/17 10:54:54;;;;;;;6.70;2.80;;;13.60;73.20;;;;;;5026178;28;20517;-75
2023/02/17 10:57:22;;;;;;;4.30;2.30;;;13.60;73.20;;;;;;5010226;28;20431;-74
2023/02/17 10:59:48;;;;;;;3.30;1.93;;;13.50;73.50;;;;;;5029328;28;20474;-74
2023/02/17 11:02:21;;;;;;;5.90;2.47;;;13.50;73.60;;;;;;5028726;28;20928;-75
2023/02/17 11:04:50;;;;;;;4.07;2.30;;;13.60;73.60;;;;;;5030286;28;20464;-76
2023/02/17 11:07:22;;;;;;;4.33;2.30;;;13.80;73.30;;;;;;5014721;28;20446;-76
2023/02/17 11:09:49;;;;;;;5.53;2.33;;;13.90;72.70;;;;;;5031186;28;20941;-74
2023/02/17 11:12:21;;;;;;;6.57;3.30;;;13.90;72.90;;;;;;5024570;28;20436;-75
2023/02/17 11:14:50;;;;;;;4.30;2.27;;;14.00;72.70;;;;;;5027585;28;20463;-76
2023/02/17 11:17:34;;;;;;;3.43;2.00;;;14.20;72.30;;;;;;5012835;28;20436;-75
2023/02/17 11:20:25;;;;;;;3.47;2.30;;;14.40;71.80;;;;;;5026099;28;20478;-75
2023/02/17 11:23:19;;;;;;;5.60;2.40;;;14.40;72.00;;;;;;5026455;28;20468;-76
2023/02/17 11:25:56;;;;;;;4.47;1.90;;;14.50;71.70;;;;;;5032163;28;21301;-74
2023/02/17 11:28:23;;;;;;;6.30;2.03;;;14.40;72.00;;;;;;5033975;28;20494;-75
2023/02/17 11:30:53;;;;;;;4.20;1.90;;;14.20;72.40;;;;;;5031374;28;20420;-76
2023/02/17 11:33:29;;;;;;;2.67;1.87;;;14.10;72.70;;;;;;5012432;28;20436;-74
2023/02/17 11:35:56;;;;;;;2.13;1.67;;;14.20;72.90;;;;;;5012824;28;20446;-74
2023/02/17 11:38:46;;;;;;;3.40;2.10;;;14.00;73.00;;;;;;5032773;28;21312;-74
2023/02/17 11:41:12;;;;;;;3.03;1.97;;;14.10;73.30;;;;;;5014357;28;20460;-74
2023/02/17 11:43:39;;;;;;;11.83;1.97;;;14.00;73.30;;;;;;5028390;28;20582;-73
2023/02/17 11:46:22;;;;;;;3.10;1.60;;;13.90;73.60;;;;;;5032612;28;20185;-75
2023/02/17 11:49:20;;;;;;;2.80;1.80;;;14.00;73.60;;;;;;5032058;28;20503;-74
2023/02/17 11:52:30;;;;;;;6.33;1.70;;;14.00;73.60;;;;;;5032080;28;20730;-77
2023/02/17 11:55:19;;;;;;;2.33;1.60;;;14.10;73.50;;;;;;5001910;28;20452;-75
2023/02/17 11:58:16;;;;;;;3.07;1.63;;;14.20;73.30;;;;;;5018523;28;20428;-75
2023/02/17 12:00:51;;;;;;;2.40;1.47;;;14.10;73.30;;;;;;5037386;28;20460;-74
2023/02/17 12:03:39;;;;;;;3.50;1.60;;;14.00;73.50;;;;;;5039292;28;20413;-74
2023/02/17 12:06:30;;;;;;;2.93;1.63;;;14.00;73.60;;;;;;5045055;28;20539;-75
2023/02/17 12:09:20;;;;;;;5.43;1.80;;;14.00;73.90;;;;;;5034833;28;20576;-75
2023/02/17 12:12:11;;;;;;;7.63;1.60;;;13.80;74.20;;;;;;5038827;28;20903;-75
2023/02/17 12:15:19;;;;;;;2.50;1.67;;;13.80;74.30;;;;;;5004975;28;20455;-76
2023/02/17 12:17:54;;;;;;;5.60;1.93;;;13.80;74.30;;;;;;5031195;28;20446;-75
2023/02/17 12:20:29;;;;;;;3.30;1.80;;;13.80;74.30;;;;;;5028908;28;20468;-74
2023/02/17 12:23:30;;;;;;;2.53;1.67;;;13.80;74.30;;;;;;5038592;28;20533;-74
2023/02/17 12:26:14;;;;;;;2.63;1.60;;;13.80;74.30;;;;;;5035623;28;20901;-75
2023/02/17 12:28:52;;;;;;;5.13;1.60;;;13.80;74.50;;;;;;5033482;28;20408;-75
2023/02/17 12:31:33;;;;;;;3.00;1.73;;;13.80;74.30;;;;;;5033465;28;20423;-75
2023/02/17 12:34:08;;;;;;;3.50;1.87;;;13.80;74.50;;;;;;5025252;28;20467;-75
2023/02/17 12:36:37;;;;;;;3.90;1.60;;;13.80;74.50;;;;;;5032403;28;20486;-76
2023/02/17 12:39:25;;;;;;;2.67;1.50;;;13.80;74.30;;;;;;5035544;28;20507;-75
2023/02/17 12:41:59;;;;;;;2.77;1.90;;;13.90;74.20;;;;;;5015483;28;20445;-76
2023/02/17 12:44:31;;;;;;;4.87;1.80;;;14.10;73.90;;;;;;5026169;28;20465;-75
2023/02/17 12:47:02;;;;;;;2.10;1.73;;;14.10;73.60;;;;;;5030247;28;20420;-74
2023/02/17 12:49:40;;;;;;;6.17;2.07;;;14.20;73.60;;;;;;5047926;28;20553;-75
2023/02/17 12:52:14;;;;;;;2.63;1.60;;;14.10;73.60;;;;;;5029568;28;20429;-74
2023/02/17 12:54:57;;;;;;;2.00;1.40;;;14.00;73.70;;;;;;5036012;28;20565;-76
2023/02/17 12:57:35;;;;;;;3.43;1.80;;;14.10;73.90;;;;;;5031056;28;20451;-74
2023/02/17 13:00:02;;;;;;;4.70;1.83;;;14.20;73.70;;;;;;5027957;28;20465;-75
2023/02/17 13:02:29;;;;;;;3.43;1.70;;;14.20;73.70;;;;;;5013175;28;20462;-75
2023/02/17 13:05:00;;;;;;;3.90;1.93;;;14.30;73.60;;;;;;5021140;28;20818;-75
2023/02/17 13:07:36;;;;;;;3.30;1.43;;;14.30;73.50;;;;;;5028980;28;20898;-75